Time;durP1;ratioP1;P1;durP2;ratioP2;P2;SDS_P1;SDS_P2;PMS_P1;PMS_P2;Temp;Humidity;BMP_temperature;BMP_pressure;BME280_temperature;BME280_humidity;BME280_pressure;Samples;Min_cycle;Max_cycle;Signal;HPM_P1;HPM_P2
2022/02/16 00:02:14;;;;;;;111.40;56.13;;;;;;;2.06;79.34;98612.10;2115852;84;21311;-84
2022/02/16 00:05:16;;;;;;;100.93;53.03;;;;;;;2.05;79.20;98611.22;2056289;86;20927;-80
2022/02/16 00:08:17;;;;;;;109.53;56.27;;;;;;;2.03;79.28;98625.72;2116099;84;20987;-83
2022/02/16 00:11:17;;;;;;;109.47;56.57;;;;;;;2.12;79.70;98625.23;2116054;84;20972;-84
2022/02/16 00:14:18;;;;;;;104.30;54.83;;;;;;;2.12;79.32;98625.23;2116044;84;20932;-84
2022/02/16 00:17:18;;;;;;;107.50;53.47;;;;;;;2.09;79.32;98630.25;2116128;84;20943;-84
2022/02/16 00:20:19;;;;;;;113.13;53.80;;;;;;;2.11;79.30;98626.05;2056557;86;21010;-82
2022/02/16 00:23:21;;;;;;;105.40;53.37;;;;;;;2.11;79.33;98623.47;2116051;84;21351;-83
2022/02/16 00:26:22;;;;;;;101.27;52.10;;;;;;;2.10;79.30;98629.03;2116068;84;20959;-84
2022/02/16 00:29:22;;;;;;;106.77;57.20;;;;;;;2.09;79.26;98625.98;2116163;84;20925;-84
2022/02/16 00:32:23;;;;;;;108.07;56.20;;;;;;;2.12;79.25;98627.80;2056276;86;21380;-81
2022/02/16 00:35:23;;;;;;;102.60;56.07;;;;;;;2.14;79.37;98635.19;2114780;82;21031;-82
2022/02/16 00:38:24;;;;;;;96.77;50.50;;;;;;;2.19;79.42;98640.99;2056436;86;21002;-83
2022/02/16 00:41:24;;;;;;;95.47;49.83;;;;;;;2.22;79.24;98636.37;2116141;84;20936;-83
2022/02/16 00:44:25;;;;;;;100.50;53.43;;;;;;;2.19;78.97;98638.41;2116133;84;20956;-84
2022/02/16 00:47:25;;;;;;;97.47;51.73;;;;;;;2.14;79.00;98629.63;2115676;84;20916;-84
2022/02/16 00:50:26;;;;;;;102.30;53.47;;;;;;;2.13;79.20;98621.83;2115948;84;20959;-84
2022/02/16 00:53:26;;;;;;;96.60;52.00;;;;;;;2.16;79.17;98616.41;2114739;84;20951;-84
2022/02/16 00:56:27;;;;;;;105.97;53.17;;;;;;;2.19;79.23;98611.78;2114336;84;20951;-85
2022/02/16 00:59:27;;;;;;;96.40;50.70;;;;;;;2.19;79.23;98609.21;2114147;84;21038;-83
2022/02/16 01:02:28;;;;;;;96.33;52.13;;;;;;;2.18;79.14;98593.29;2114403;84;20916;-83
2022/02/16 01:05:29;;;;;;;98.87;53.37;;;;;;;2.17;79.17;98588.55;2114795;84;21358;-85
2022/02/16 01:08:29;;;;;;;103.20;55.20;;;;;;;2.14;79.08;98583.27;2115759;84;20936;-86
2022/02/16 01:11:29;;;;;;;93.67;51.17;;;;;;;2.13;79.12;98587.08;2116763;84;21598;-84
2022/02/16 01:14:30;;;;;;;107.63;54.43;;;;;;;2.08;79.01;98573.14;2116843;84;20962;-84
2022/02/16 01:17:30;;;;;;;102.77;55.97;;;;;;;2.00;79.02;98565.51;2057140;86;21018;-83
2022/02/16 01:20:31;;;;;;;114.83;62.53;;;;;;;1.96;79.31;98572.64;2119252;84;21011;-84
2022/02/16 01:23:32;;;;;;;104.90;54.63;;;;;;;1.90;79.84;98563.84;2063763;86;20923;-83
2022/02/16 01:26:33;;;;;;;100.30;53.77;;;;;;;1.86;79.66;98550.38;2051785;87;21020;-84
2022/02/16 01:29:33;;;;;;;103.73;55.07;;;;;;;1.73;79.57;98551.94;2050130;87;20960;-83
2022/02/16 01:32:34;;;;;;;105.00;54.57;;;;;;;1.66;79.83;98561.51;2050129;87;21049;-83
2022/02/16 01:35:34;;;;;;;98.27;53.37;;;;;;;1.58;79.83;98556.05;2079356;86;21025;-84
2022/02/16 01:38:35;;;;;;;105.63;57.90;;;;;;;1.53;79.80;98557.95;2090003;85;20961;-83
2022/02/16 01:41:35;;;;;;;108.50;61.13;;;;;;;1.40;79.63;98553.97;2073892;86;21005;-83
2022/02/16 01:44:36;;;;;;;106.70;57.50;;;;;;;1.30;79.75;98551.82;2089895;85;20973;-83
2022/02/16 01:47:36;;;;;;;103.03;56.20;;;;;;;1.21;79.72;98553.99;2073957;86;20993;-84
2022/02/16 01:50:37;;;;;;;94.93;51.70;;;;;;;1.13;79.85;98547.23;2089885;85;20996;-84
2022/02/16 01:53:37;;;;;;;107.50;53.37;;;;;;;1.09;79.87;98547.03;2074128;86;20993;-84
2022/02/16 01:56:38;;;;;;;96.83;50.13;;;;;;;1.04;79.76;98548.11;2089301;85;21391;-84
2022/02/16 01:59:39;;;;;;;93.17;49.67;;;;;;;1.03;80.07;98546.36;2073032;86;21076;-83
2022/02/16 02:02:40;;;;;;;96.57;49.27;;;;;;;1.03;79.86;98536.08;2089896;85;21005;-84
2022/02/16 02:05:40;;;;;;;90.70;49.47;;;;;;;0.99;79.91;98539.32;2073956;86;20984;-84
2022/02/16 02:08:41;;;;;;;90.83;49.50;;;;;;;0.98;80.02;98534.99;2090015;85;20949;-83
2022/02/16 02:11:41;;;;;;;92.20;48.47;;;;;;;0.94;79.88;98526.67;2073891;86;21392;-83
2022/02/16 02:14:42;;;;;;;94.23;49.80;;;;;;;0.96;80.00;98525.05;2089902;85;20937;-83
2022/02/16 02:17:42;;;;;;;92.40;48.30;;;;;;;0.98;80.10;98522.55;2073871;86;20950;-83
2022/02/16 02:20:43;;;;;;;95.37;50.07;;;;;;;1.00;80.33;98528.63;2089991;85;21012;-85
2022/02/16 02:23:43;;;;;;;95.37;50.47;;;;;;;1.03;80.64;98529.65;2074256;86;20914;-85
2022/02/16 02:26:44;;;;;;;98.57;49.90;;;;;;;1.05;80.44;98516.45;2090365;85;20906;-86
2022/02/16 02:29:44;;;;;;;122.93;52.07;;;;;;;1.07;80.33;98516.12;2074686;86;21025;-85
2022/02/16 02:32:45;;;;;;;95.63;51.17;;;;;;;1.11;80.46;98518.01;2090497;85;21417;-84
2022/02/16 02:35:46;;;;;;;105.77;52.73;;;;;;;1.14;80.45;98514.69;2073643;86;21052;-84
2022/02/16 02:38:47;;;;;;;100.77;50.33;;;;;;;1.15;80.48;98512.19;2090178;85;21100;-84
2022/02/16 02:41:47;;;;;;;95.83;51.43;;;;;;;1.17;80.67;98513.53;2073584;86;21001;-84
2022/02/16 02:44:47;;;;;;;117.60;55.07;;;;;;;1.24;80.95;98513.87;2089345;85;20950;-83
2022/02/16 02:47:48;;;;;;;100.60;53.03;;;;;;;1.33;80.98;98517.23;2074013;86;20941;-83
2022/02/16 02:50:48;;;;;;;102.13;53.27;;;;;;;1.42;81.09;98515.46;2089781;82;21415;-82
2022/02/16 02:53:49;;;;;;;140.37;54.50;;;;;;;1.51;81.08;98515.44;2073930;86;20984;-84
2022/02/16 02:56:50;;;;;;;117.00;56.47;;;;;;;1.60;80.93;98509.39;2090295;85;20953;-84
2022/02/16 02:59:50;;;;;;;100.03;55.00;;;;;;;2.27;95.26;98503.52;2074709;86;21104;-85
2022/02/16 03:02:50;;;;;;;102.70;56.27;;;;;;;6.70;100.00;98486.48;2089279;85;21001;-84
2022/02/16 03:05:51;;;;;;;93.23;51.97;;;;;;;9.45;100.00;98469.31;2073499;86;20985;-84
2022/02/16 03:08:51;;;;;;;88.07;49.13;;;;;;;11.26;91.10;98462.34;2089145;85;20953;-84
2022/02/16 03:11:52;;;;;;;92.83;49.40;;;;;;;9.80;70.82;98468.80;2073654;86;20996;-84
2022/02/16 03:14:52;;;;;;;90.47;49.80;;;;;;;7.86;67.95;98477.08;2089821;85;21385;-84
2022/02/16 03:17:53;;;;;;;107.17;52.70;;;;;;;6.37;68.00;98477.13;2073804;86;21361;-83
2022/02/16 03:20:53;;;;;;;98.57;51.53;;;;;;;5.27;68.67;98471.32;2089197;85;20914;-84
2022/02/16 03:23:54;;;;;;;91.80;51.07;;;;;;;4.39;69.81;98467.06;2073711;86;20945;-84
2022/02/16 03:26:55;;;;;;;96.90;52.23;;;;;;;3.81;70.79;98469.98;2089748;85;20941;-86
2022/02/16 03:29:56;;;;;;;99.20;52.97;;;;;;;3.31;71.59;98477.71;2073591;86;20968;-84
2022/02/16 03:32:57;;;;;;;90.90;53.30;;;;;;;2.83;72.31;98479.03;2088535;85;21476;-83
2022/02/16 03:35:57;;;;;;;97.70;53.60;;;;;;;2.49;73.17;98479.45;2070586;86;21005;-82
2022/02/16 03:38:58;;;;;;;98.77;53.47;;;;;;;2.21;73.91;98487.83;2092268;85;21002;-86
2022/02/16 03:41:58;;;;;;;96.93;53.53;;;;;;;2.01;74.56;98479.33;2138834;83;20943;-84
2022/02/16 03:44:59;;;;;;;93.73;51.47;;;;;;;1.86;74.99;98481.30;2092552;85;20943;-84
2022/02/16 03:47:59;;;;;;;93.57;50.33;;;;;;;1.74;75.15;98488.12;2138767;83;20963;-84
2022/02/16 03:51:00;;;;;;;102.60;52.43;;;;;;;1.62;75.20;98494.42;2092818;85;20962;-82
2022/02/16 03:54:00;;;;;;;96.33;51.33;;;;;;;1.49;75.65;98490.47;2138735;83;20993;-84
2022/02/16 03:57:01;;;;;;;102.87;53.97;;;;;;;1.39;76.12;98484.47;2138808;83;21396;-84
2022/02/16 04:00:01;;;;;;;94.73;52.03;;;;;;;1.33;76.57;98487.66;2139006;83;21350;-84
2022/02/16 04:03:02;;;;;;;93.20;50.30;;;;;;;1.30;76.86;98481.11;2092627;85;21014;-85
2022/02/16 04:06:03;;;;;;;99.80;50.67;;;;;;;1.24;77.12;98484.30;2139106;83;20991;-85
2022/02/16 04:09:04;;;;;;;96.30;51.50;;;;;;;1.19;77.52;98476.80;2139131;83;21019;-84
2022/02/16 04:12:04;;;;;;;93.30;49.40;;;;;;;1.13;77.87;98464.97;2092720;85;20975;-83
2022/02/16 04:15:05;;;;;;;92.53;48.03;;;;;;;1.07;78.06;98459.97;2139096;83;21029;-85
2022/02/16 04:18:05;;;;;;;89.77;49.70;;;;;;;0.98;78.02;98457.01;2138853;83;20954;-84
2022/02/16 04:21:07;;;;;;;91.87;49.53;;;;;;;0.87;77.96;98460.00;2139119;83;20938;-85
2022/02/16 04:24:07;;;;;;;98.77;51.03;;;;;;;0.78;78.40;98459.97;2138658;83;21049;-84
2022/02/16 04:27:08;;;;;;;99.60;52.43;;;;;;;0.68;78.45;98461.25;2092376;85;20966;-84
2022/02/16 04:30:08;;;;;;;102.70;55.17;;;;;;;0.63;78.74;98460.17;2138820;83;20994;-84
2022/02/16 04:33:09;;;;;;;111.33;50.00;;;;;;;0.52;78.55;98460.98;2138651;83;20947;-85
2022/02/16 04:36:10;;;;;;;101.30;53.20;;;;;;;0.42;78.52;98454.95;2143122;82;20991;-83
2022/02/16 04:39:10;;;;;;;103.43;53.10;;;;;;;0.33;78.76;98460.08;2096610;85;21123;-83
2022/02/16 04:42:11;;;;;;;87.90;47.73;;;;;;;0.27;79.44;98460.69;2095426;85;21456;-84
2022/02/16 04:45:11;;;;;;;88.60;49.20;;;;;;;0.18;78.83;98467.96;2051679;87;21421;-83
2022/02/16 04:48:12;;;;;;;106.87;53.33;;;;;;;0.09;78.96;98468.41;2095124;85;20985;-84
2022/02/16 04:51:12;;;;;;;102.27;51.53;;;;;;;0.04;79.59;98466.45;2095505;85;20973;-85
2022/02/16 04:54:13;;;;;;;107.53;53.00;;;;;;;-0.02;79.50;98461.87;2051047;87;21030;-85
2022/02/16 04:57:13;;;;;;;99.53;52.87;;;;;;;-0.08;79.83;98456.05;2096203;85;21057;-85
2022/02/16 05:00:14;;;;;;;108.83;55.27;;;;;;;-0.13;80.13;98451.10;2096031;85;21041;-84
2022/02/16 05:03:14;;;;;;;100.37;53.57;;;;;;;-0.17;80.10;98444.07;2051694;87;21516;-83
2022/02/16 05:06:15;;;;;;;108.63;54.90;;;;;;;-0.22;80.35;98442.98;2097320;85;21337;-84
2022/02/16 05:09:15;;;;;;;100.03;52.33;;;;;;;-0.23;80.72;98443.78;2096274;85;21353;-81
2022/02/16 05:12:16;;;;;;;110.00;54.30;;;;;;;-0.24;80.52;98447.55;2051736;87;21258;-84
2022/02/16 05:15:16;;;;;;;98.63;52.40;;;;;;;-0.23;80.86;98450.59;2095416;85;21025;-84
2022/02/16 05:18:17;;;;;;;100.87;54.27;;;;;;;-0.25;80.72;98444.11;2096067;85;21013;-84
2022/02/16 05:21:17;;;;;;;100.53;54.00;;;;;;;-0.31;80.45;98438.70;2051776;87;21013;-84
2022/02/16 05:24:19;;;;;;;105.43;51.87;;;;;;;-0.36;80.52;98437.59;2094486;85;21005;-84
2022/02/16 05:27:20;;;;;;;94.23;49.60;;;;;;;-0.37;80.51;98436.72;2094300;85;20992;-84
2022/02/16 05:30:21;;;;;;;98.27;49.70;;;;;;;-0.38;80.46;98434.08;2050477;87;20978;-82
2022/02/16 05:33:21;;;;;;;101.37;51.80;;;;;;;-0.42;80.56;98432.17;2094763;85;20958;-83
2022/02/16 05:36:22;;;;;;;123.20;54.23;;;;;;;-0.42;80.82;98429.61;2057861;84;21046;-80
2022/02/16 05:39:23;;;;;;;108.33;53.63;;;;;;;-0.43;81.14;98431.70;2107676;84;21062;-82
2022/02/16 05:42:23;;;;;;;100.13;53.50;;;;;;;-0.40;81.10;98431.84;2048462;86;21029;-83
2022/02/16 05:45:25;;;;;;;99.07;52.73;;;;;;;-0.39;81.17;98434.88;2107975;84;21266;-85
2022/02/16 05:48:26;;;;;;;100.53;51.83;;;;;;;-0.38;81.10;98438.80;2107851;84;20983;-85
2022/02/16 05:51:26;;;;;;;97.77;52.50;;;;;;;-0.39;81.27;98435.77;2048812;86;21014;-84
2022/02/16 05:54:27;;;;;;;99.57;53.70;;;;;;;-0.39;81.29;98435.77;2107269;84;20964;-81
2022/02/16 05:57:28;;;;;;;102.93;54.07;;;;;;;-0.41;81.13;98425.84;2048781;86;20958;-82
2022/02/16 06:00:28;;;;;;;94.97;52.60;;;;;;;-0.38;81.50;98427.27;2108122;84;21403;-84
2022/02/16 06:03:29;;;;;;;108.50;53.63;;;;;;;-0.38;81.40;98426.39;2108616;84;21471;-83
2022/02/16 06:06:29;;;;;;;102.13;54.70;;;;;;;-0.38;81.82;98434.95;2108294;84;21430;-85
2022/02/16 06:09:30;;;;;;;103.00;53.83;;;;;;;-0.38;81.71;98433.67;2107891;84;21347;-83
2022/02/16 06:15:32;;;;;;;97.97;53.70;;;;;;;-0.35;81.84;98422.28;2091381;84;20987;-84
2022/02/16 06:18:33;;;;;;;102.43;52.67;;;;;;;-0.33;82.10;98414.25;2108479;84;21238;-82
2022/02/16 06:21:33;;;;;;;97.20;52.87;;;;;;;-0.32;81.67;98416.41;2108277;84;20991;-84
2022/02/16 06:24:34;;;;;;;98.43;51.80;;;;;;;-0.29;81.54;98416.97;2107790;84;21010;-84
2022/02/16 06:27:34;;;;;;;100.83;51.13;;;;;;;-0.27;81.91;98416.23;2107348;84;20986;-79
2022/02/16 06:30:35;;;;;;;105.07;54.03;;;;;;;-0.22;82.13;98412.59;2048207;86;20990;-79
2022/02/16 06:33:35;;;;;;;96.43;51.40;;;;;;;-0.15;82.46;98412.08;2107721;84;21038;-84
2022/02/16 06:36:36;;;;;;;94.33;51.67;;;;;;;-0.05;83.03;98407.44;2111391;82;21390;-84
2022/02/16 06:39:36;;;;;;;99.40;52.23;;;;;;;0.06;83.06;98392.97;2112764;84;21982;-84
2022/02/16 06:42:37;;;;;;;106.40;53.73;;;;;;;0.24;83.66;98396.38;2053157;86;21042;-83
2022/02/16 06:45:37;;;;;;;163.33;69.07;;;;;;;0.51;84.13;98389.00;2113389;84;20952;-80
2022/02/16 06:48:38;;;;;;;164.77;82.20;;;;;;;0.77;84.70;98380.73;2112090;84;21018;-80
2022/02/16 06:51:38;;;;;;;159.97;79.93;;;;;;;1.15;85.70;98378.91;2112038;84;21003;-81
2022/02/16 06:54:39;;;;;;;133.30;76.90;;;;;;;1.52;85.97;98377.01;2112606;84;21006;-85
2022/02/16 06:57:39;;;;;;;123.47;64.50;;;;;;;1.88;85.76;98378.88;2113370;84;21387;-83
2022/02/16 07:00:40;;;;;;;97.60;56.37;;;;;;;2.11;84.85;98379.74;2054286;86;21421;-82
2022/02/16 07:03:41;;;;;;;88.40;52.97;;;;;;;2.30;84.00;98377.44;2114832;84;21013;-84
2022/02/16 07:06:41;;;;;;;104.67;58.17;;;;;;;2.42;83.99;98370.16;2114734;84;20963;-82
2022/02/16 07:09:42;;;;;;;125.37;72.40;;;;;;;2.61;83.89;98360.13;2113887;84;21015;-83
2022/02/16 07:12:42;;;;;;;140.80;77.80;;;;;;;2.81;83.81;98362.11;2054482;87;21033;-83
2022/02/16 07:15:43;;;;;;;118.60;67.27;;;;;;;2.99;83.56;98349.84;2113160;84;21005;-82
2022/02/16 07:18:45;;;;;;;110.60;62.33;;;;;;;3.20;83.24;98347.97;2054002;86;21089;-83
2022/02/16 07:21:47;;;;;;;111.67;62.00;;;;;;;3.41;83.04;98344.33;2097948;84;21370;-84
2022/02/16 07:24:53;;;;;;;158.40;90.40;;;;;;;3.60;82.55;98333.78;2097853;84;20964;-84
2022/02/16 07:27:54;;;;;;;122.43;72.67;;;;;;;3.73;82.18;98330.75;2113686;84;21046;-84
2022/02/16 07:30:56;;;;;;;145.37;66.70;;;;;;;3.93;81.74;98327.89;2055912;87;20951;-82
2022/02/16 07:33:56;;;;;;;109.90;63.07;;;;;;;4.06;81.30;98327.00;2114672;84;21010;-83
2022/02/16 07:37:00;;;;;;;106.90;63.87;;;;;;;4.17;80.84;98318.27;2114020;82;21019;-85
2022/02/16 07:39:59;;;;;;;186.43;85.07;;;;;;;4.26;80.43;98315.06;2114227;84;20979;-85
2022/02/16 07:43:00;;;;;;;154.20;79.63;;;;;;;4.34;80.24;98308.02;2054671;86;21505;-83
2022/02/16 07:46:01;;;;;;;108.57;57.03;;;;;;;4.45;79.89;98309.60;2113321;84;21355;-83
2022/02/16 07:49:02;;;;;;;102.50;52.33;;;;;;;4.54;79.49;98307.27;2053628;87;20998;-82
2022/02/16 07:52:02;;;;;;;91.73;51.77;;;;;;;4.59;79.11;98306.97;2112930;84;20995;-82
2022/02/16 07:55:03;;;;;;;91.73;51.17;;;;;;;4.69;78.90;98314.14;2113564;84;20997;-82
2022/02/16 07:58:06;;;;;;;100.73;51.77;;;;;;;4.83;78.64;98317.08;2054436;87;21018;-83
2022/02/16 08:01:06;;;;;;;128.90;55.40;;;;;;;4.97;78.43;98309.67;2113763;84;20991;-82
2022/02/16 08:04:16;;;;;;;118.33;55.80;;;;;;;5.11;78.15;98304.42;2113494;84;21690;-82
2022/02/16 08:07:16;;;;;;;110.07;54.57;;;;;;;5.22;77.62;98298.25;2053944;86;21461;-85
2022/02/16 08:13:54;;;;;;;94.30;48.03;;;;;;;5.53;76.87;98294.25;2055004;87;21022;-78
2022/02/16 08:17:13;;;;;;;74.73;44.40;;;;;;;5.74;76.27;98289.55;2101654;84;21188;-82
2022/02/16 08:20:14;;;;;;;70.57;40.13;;;;;;;5.89;75.83;98281.27;2093346;84;21537;-81
2022/02/16 08:23:15;;;;;;;53.30;34.30;;;;;;;6.09;74.96;98280.83;2024997;87;21081;-80
2022/02/16 08:26:17;;;;;;;55.80;33.63;;;;;;;6.26;74.73;98269.96;2095896;84;21023;-80
2022/02/16 08:32:35;;;;;;;50.53;31.53;;;;;;;6.66;73.13;98259.04;2070938;84;20968;-81
2022/02/16 08:35:37;;;;;;;53.77;33.53;;;;;;;6.99;71.82;98245.80;2046722;84;21038;-80
2022/02/16 08:38:38;;;;;;;46.80;30.67;;;;;;;7.23;72.13;98242.30;2105445;84;21078;-84
2022/02/16 08:41:39;;;;;;;52.27;32.00;;;;;;;7.41;70.67;98227.84;2020081;87;21021;-80
2022/02/16 08:44:40;;;;;;;50.73;31.77;;;;;;;7.41;70.67;98227.84;2109098;84;21042;-81
2022/02/16 08:50:44;;;;;;;63.07;34.97;;;;;;;7.57;69.49;98185.64;2092022;84;21067;-82
2022/02/16 08:53:46;;;;;;;50.93;26.27;;;;;;;7.77;68.87;98219.67;2017559;87;21009;-81
2022/02/16 08:56:49;;;;;;;107.80;22.90;;;;;;;7.89;66.92;98218.56;2087662;84;21444;-82
2022/02/16 08:59:52;;;;;;;44.53;19.83;;;;;;;8.10;64.90;98211.02;2105483;84;21050;-81
2022/02/16 09:02:52;;;;;;;33.30;20.80;;;;;;;8.18;64.88;98206.78;2107528;84;20984;-83
2022/02/16 09:05:55;;;;;;;26.43;17.37;;;;;;;8.23;66.33;98210.73;2040153;87;21034;-84
2022/02/16 09:08:56;;;;;;;37.17;20.37;;;;;;;8.43;64.35;98201.87;2107868;84;21373;-84
2022/02/16 09:11:56;;;;;;;28.50;16.93;;;;;;;8.40;64.74;98200.11;2048475;86;21644;-84
2022/02/16 09:14:57;;;;;;;45.60;20.03;;;;;;;8.35;62.76;98199.63;2107068;84;21031;-84
2022/02/16 09:17:57;;;;;;;32.33;18.00;;;;;;;8.40;63.92;98187.53;2106871;84;20996;-81
2022/02/16 09:21:00;;;;;;;31.80;16.63;;;;;;;8.70;62.62;98181.78;2106842;84;21067;-82
2022/02/16 09:24:00;;;;;;;41.30;18.67;;;;;;;8.82;62.66;98177.55;2106992;84;20999;-82
2022/02/16 09:27:00;;;;;;;28.67;17.60;;;;;;;8.90;61.37;98168.50;2107517;84;21021;-84
2022/02/16 09:30:01;;;;;;;29.17;17.33;;;;;;;8.99;59.86;98162.48;2107352;84;20979;-83
2022/02/16 09:33:01;;;;;;;27.70;16.73;;;;;;;9.03;61.15;98174.66;2108381;84;20991;-80
2022/02/16 09:36:02;;;;;;;34.33;17.60;;;;;;;8.98;59.64;98166.82;2047120;85;21108;-83
2022/02/16 09:39:03;;;;;;;36.33;15.80;;;;;;;8.89;59.47;98165.45;2107576;84;21022;-80
2022/02/16 09:42:03;;;;;;;38.20;16.60;;;;;;;8.78;57.66;98160.59;2048636;86;21103;-82
2022/02/16 09:45:04;;;;;;;29.50;16.37;;;;;;;8.93;58.65;98155.08;2107000;84;20971;-83
2022/02/16 09:48:05;;;;;;;27.57;16.97;;;;;;;9.26;59.70;98158.77;2048044;86;21125;-80
2022/02/16 09:51:06;;;;;;;31.47;14.33;;;;;;;9.55;59.59;98150.70;2107184;84;21403;-84
2022/02/16 09:54:06;;;;;;;32.20;16.73;;;;;;;9.71;58.09;98155.98;2107021;84;21011;-82
2022/02/16 09:57:07;;;;;;;70.93;14.43;;;;;;;9.89;58.02;98146.50;2048458;86;21401;-82
2022/02/16 10:00:08;;;;;;;20.33;13.30;;;;;;;9.85;55.45;98143.44;2107117;84;21433;-84
2022/02/16 10:03:09;;;;;;;20.70;12.03;;;;;;;9.78;56.31;98136.47;2107467;84;21010;-78
2022/02/16 10:06:09;;;;;;;40.83;11.40;;;;;;;9.79;55.60;98133.00;2107735;84;21090;-81
2022/02/16 10:09:10;;;;;;;33.60;11.20;;;;;;;9.86;55.69;98124.77;2108039;84;20979;-80
2022/02/16 10:12:10;;;;;;;40.07;10.77;;;;;;;9.90;54.51;98114.78;2107819;84;21404;-80
2022/02/16 10:15:11;;;;;;;126.90;13.90;;;;;;;9.90;53.90;98110.44;2108773;84;20967;-81
2022/02/16 10:18:14;;;;;;;100.67;12.00;;;;;;;9.88;51.78;98100.44;2049502;87;21030;-83
2022/02/16 10:21:14;;;;;;;19.47;10.13;;;;;;;9.91;52.56;98094.37;2108727;84;20972;-84
2022/02/16 10:24:15;;;;;;;17.83;9.67;;;;;;;9.94;52.84;98083.95;2050627;86;21235;-83
2022/02/16 10:27:15;;;;;;;13.93;9.33;;;;;;;10.02;52.48;98086.13;2050497;86;21038;-82
2022/02/16 10:30:16;;;;;;;29.50;10.23;;;;;;;10.11;52.84;98083.55;2051228;86;21038;-80
2022/02/16 10:33:16;;;;;;;17.37;9.87;;;;;;;10.24;53.39;98087.50;2108360;84;20995;-82
2022/02/16 10:36:19;;;;;;;31.77;8.80;;;;;;;10.31;50.99;98073.16;2049402;84;21059;-82
2022/02/16 10:39:26;;;;;;;12.63;8.10;;;;;;;10.33;51.30;98067.95;2048498;86;21086;-81
2022/02/16 10:42:24;;;;;;;15.43;6.83;;;;;;;10.41;49.62;98054.50;2107264;84;21046;-82
2022/02/16 10:45:25;;;;;;;65.83;8.70;;;;;;;10.44;47.36;98047.55;2108237;84;21035;-83
2022/02/16 10:48:25;;;;;;;25.90;6.90;;;;;;;10.44;48.22;98042.33;2049153;86;21477;-85
2022/02/16 10:54:28;;;;;;;44.53;7.80;;;;;;;10.51;46.51;98036.67;2042511;87;21037;-83
2022/02/16 10:57:29;;;;;;;21.90;6.30;;;;;;;10.51;46.21;98033.63;2049346;87;20986;-83
2022/02/16 11:00:31;;;;;;;28.53;6.73;;;;;;;10.57;47.81;98024.92;2049034;86;21690;-83
2022/02/16 11:03:32;;;;;;;12.90;6.70;;;;;;;10.66;48.19;98009.25;2108543;84;21418;-84
2022/02/16 11:06:32;;;;;;;349.67;18.83;;;;;;;10.72;47.24;98006.63;2049063;86;21101;-83
2022/02/16 11:09:33;;;;;;;16.57;5.90;;;;;;;10.74;44.29;98004.02;2108566;84;20987;-83
2022/02/16 11:12:33;;;;;;;12.10;6.60;;;;;;;10.67;47.23;97987.49;2107605;84;21046;-83
2022/02/16 11:15:34;;;;;;;14.70;7.20;;;;;;;10.74;46.50;97985.30;2107883;84;21446;-85
2022/02/16 11:18:35;;;;;;;19.13;6.73;;;;;;;10.79;48.13;97980.07;2048660;86;21999;-82
2022/02/16 11:21:37;;;;;;;25.08;6.85;;;;;;;10.87;45.88;97973.52;2048854;86;21006;-83
2022/02/16 11:24:37;;;;;;;14.10;6.70;;;;;;;10.88;45.94;97961.77;2108269;84;21462;-84
2022/02/16 11:27:40;;;;;;;61.23;8.17;;;;;;;10.91;47.35;97951.75;2049000;86;21065;-84
2022/02/16 11:30:40;;;;;;;14.10;6.13;;;;;;;10.95;43.40;97946.95;2108055;84;21015;-82
2022/02/16 11:33:41;;;;;;;19.50;6.70;;;;;;;10.94;44.24;97946.52;2048524;86;21026;-81
2022/02/16 11:36:41;;;;;;;30.70;6.58;;;;;;;10.97;44.14;97949.11;2048520;85;21097;-83
2022/02/16 11:39:42;;;;;;;13.73;6.27;;;;;;;10.97;44.36;97943.89;2049080;86;21034;-83
2022/02/16 11:42:42;;;;;;;46.77;7.60;;;;;;;11.02;43.97;97930.38;2049201;86;20990;-83
2022/02/16 11:45:45;;;;;;;36.73;6.95;;;;;;;11.09;43.98;97920.33;2049547;86;21010;-82
2022/02/16 11:48:47;;;;;;;21.53;6.23;;;;;;;11.05;44.13;97921.22;2049222;86;21029;-83
2022/02/16 11:51:48;;;;;;;14.17;6.17;;;;;;;11.08;44.22;97913.37;2108088;84;21007;-83
2022/02/16 11:54:49;;;;;;;14.00;5.87;;;;;;;11.27;43.94;97907.20;2108088;84;20999;-82
2022/02/16 11:57:50;;;;;;;14.10;5.95;;;;;;;11.47;43.74;97895.32;2108279;84;20936;-81
2022/02/16 12:00:50;;;;;;;29.40;6.62;;;;;;;11.51;42.09;97900.09;2049366;86;21085;-83
2022/02/16 12:03:51;;;;;;;87.75;8.58;;;;;;;11.59;41.87;97898.28;2049304;86;20990;-81
2022/02/16 12:06:52;;;;;;;12.88;6.33;;;;;;;11.67;41.91;97897.79;2049675;87;21078;-83
2022/02/16 12:09:52;;;;;;;12.18;6.47;;;;;;;11.89;42.44;97888.92;2049921;86;21018;-81
2022/02/16 12:12:52;;;;;;;22.93;5.28;;;;;;;12.08;42.60;97883.95;2050386;86;21018;-82
2022/02/16 12:15:53;;;;;;;31.33;5.85;;;;;;;12.11;41.16;97883.06;2054012;85;20952;-83
2022/02/16 12:18:53;;;;;;;15.50;5.33;;;;;;;12.00;41.68;97883.59;2085084;84;21022;-83
2022/02/16 12:21:54;;;;;;;38.38;6.33;;;;;;;11.86;41.72;97873.70;2085062;84;21686;-82
2022/02/16 12:24:54;;;;;;;46.53;6.90;;;;;;;11.70;40.74;97878.16;2085234;84;20994;-83
2022/02/16 12:27:55;;;;;;;11.08;5.65;;;;;;;11.55;39.96;97861.29;2085235;85;21046;-82
2022/02/16 12:30:56;;;;;;;10.95;5.42;;;;;;;11.42;40.65;97849.63;2086217;84;20998;-82
2022/02/16 12:33:56;;;;;;;73.25;8.18;;;;;;;11.31;40.66;97841.00;2086501;84;21356;-82
2022/02/16 12:36:56;;;;;;;27.30;5.95;;;;;;;11.15;40.05;97831.50;2085615;84;21489;-83
2022/02/16 12:40:00;;;;;;;17.17;5.43;;;;;;;11.03;41.58;97831.58;2084951;84;21169;-83
2022/02/16 12:43:00;;;;;;;11.83;5.10;;;;;;;11.74;42.01;97830.20;2086057;85;21659;-81
2022/02/16 12:46:01;;;;;;;14.07;4.67;;;;;;;11.51;41.54;97821.25;2084845;84;21392;-82
2022/02/16 12:49:03;;;;;;;19.07;5.17;;;;;;;11.12;42.04;97831.08;2076182;85;22008;-81
2022/02/16 12:52:04;;;;;;;20.50;5.10;;;;;;;10.86;42.40;97821.23;2084862;85;21006;-80
2022/02/16 12:55:06;;;;;;;44.23;6.37;;;;;;;10.71;42.76;97823.48;2075751;85;21041;-81
2022/02/16 12:58:07;;;;;;;18.77;5.50;;;;;;;10.58;42.48;97823.11;2084256;84;21014;-82
2022/02/16 13:01:07;;;;;;;14.50;5.60;;;;;;;10.55;43.53;97819.65;2084245;84;21540;-82
2022/02/16 13:04:08;;;;;;;45.17;5.63;;;;;;;10.52;44.06;97820.53;2084321;84;21418;-80
2022/02/16 13:07:09;;;;;;;27.73;5.63;;;;;;;10.49;44.24;97819.23;2084873;84;20998;-80
2022/02/16 13:10:09;;;;;;;12.87;4.50;;;;;;;10.51;44.68;97822.70;2085175;84;21242;-80
2022/02/16 13:13:10;;;;;;;11.03;4.47;;;;;;;10.57;42.59;97803.55;2084686;84;21022;-80
2022/02/16 13:16:10;;;;;;;10.40;3.90;;;;;;;10.63;41.10;97801.78;2084663;84;21005;-80
2022/02/16 13:19:11;;;;;;;5.03;3.33;;;;;;;10.67;42.22;97793.05;2084697;84;21069;-81
2022/02/16 13:22:11;;;;;;;7.57;3.97;;;;;;;10.74;42.26;97786.06;2084220;84;21006;-80
2022/02/16 13:25:12;;;;;;;29.40;4.43;;;;;;;10.75;40.83;97774.30;2084374;84;21010;-81
2022/02/16 13:28:16;;;;;;;39.80;6.10;;;;;;;10.73;39.85;97774.75;2084374;84;20979;-82
2022/02/16 13:31:14;;;;;;;164.63;10.53;;;;;;;10.70;40.05;97770.86;2145116;82;21030;-81
2022/02/16 13:34:17;;;;;;;524.33;30.60;;;;;;;10.63;39.82;97767.85;2145334;83;20967;-81
2022/02/16 13:37:17;;;;;;;23.50;5.10;;;;;;;10.46;39.91;97767.94;2148096;81;21085;-80
2022/02/16 13:40:18;;;;;;;90.13;6.60;;;;;;;10.32;41.30;97752.76;2151049;83;21022;-83
2022/02/16 13:43:18;;;;;;;16.50;6.70;;;;;;;10.19;41.34;97736.70;2151888;83;20959;-81
2022/02/16 13:46:20;;;;;;;22.23;6.07;;;;;;;10.20;41.94;97727.59;2151848;83;20967;-85
2022/02/16 13:49:20;;;;;;;35.87;5.57;;;;;;;10.20;40.89;97721.52;2150726;83;21159;-78
2022/02/16 13:52:21;;;;;;;19.23;7.93;;;;;;;10.34;41.31;97712.32;2151345;83;20986;-78
2022/02/16 13:55:21;;;;;;;25.00;5.30;;;;;;;10.49;40.62;97695.31;2150828;83;20979;-83
2022/02/16 13:58:22;;;;;;;24.00;5.00;;;;;;;10.59;40.53;97698.73;2152339;83;20940;-81
2022/02/16 14:01:22;;;;;;;11.67;4.40;;;;;;;10.61;39.92;97687.41;2153332;83;20986;-81
2022/02/16 14:04:23;;;;;;;29.60;4.97;;;;;;;10.58;40.72;97678.73;2152101;83;20975;-83
2022/02/16 14:07:25;;;;;;;14.90;4.00;;;;;;;10.56;41.05;97665.69;2151881;83;21035;-82
2022/02/16 14:10:26;;;;;;;137.47;9.13;;;;;;;10.55;41.22;97652.66;2152243;83;20967;-83
2022/02/16 14:13:26;;;;;;;10.63;4.97;;;;;;;10.47;39.97;97635.75;2089693;85;20970;-82